Main page
METAR-TAF:

METAR-TAF

Airports :

Khartoum, Sudan

Khartoum International Airport

latitude: 15-36N, longitude: 032-33E, elevation: 382 m

Current weather observation

The report was made 6 minutes ago, at 20:30 UTC
Wind 10 kt from the West
Temperature 33°C
Humidity 36%
Pressure 1009 hPa
Visibility 10 km or more
no clouds below 1500 m and no cumulonimbus

METAR: HSSS 232030Z 26010KT CAVOK 33/16 Q1009 NOSIG

Time: 23:36 (20:36 UTC)

Forecast

The report was made 3 hours and 36 minutes ago, at 17:00 UTC
Forecast valid from 23 at 18 UTC to 24 at 24 UTC
Wind 10 kt from the South with gusts up to 20 kt
Visibility 10 km or more
Few clouds at a height of 4000 ft
Broken clouds at a height of 14000 ft
Probability 30% :
Temporary
from 23 at 18 UTC to 23 at 21 UTC
Visibility: 6000 m
Few clouds at a height of 4500 ft, Cumulonimbus.
thunderstorm, rain

TAF: HSSS 231700Z 2318/2424 18010G20KT 9999 FEW040 BKN140 PROB30 TEMPO 2318/2321 6000 TSRA FEW045CB

Weather observations and forecasts of more than 4000 airports (METAR and TAF reports).

The available stations are represented by yellow and red dots on the map.

Hover mouse over dot to see the name of the station.

Then click to see weather observations and forecasts.

To change the map : click on the green buttons with a black cross to zoom in, on the green button with a dash to zoom out, or on the green arrows for adjacent maps.


METAR-TAF: